createdAt,value
2019-03-18T00:00:02.802Z,3.78
2019-03-18T00:10:02.752Z,3.78
2019-03-18T00:20:03.011Z,3.80
2019-03-18T00:30:03.275Z,3.71
2019-03-18T00:40:02.880Z,3.63
2019-03-18T00:50:02.357Z,3.55
2019-03-18T01:00:02.769Z,3.55
2019-03-18T01:10:03.057Z,3.54
2019-03-18T01:20:02.829Z,3.48
2019-03-18T01:30:02.919Z,3.47
2019-03-18T01:40:02.496Z,3.39
2019-03-18T01:50:03.128Z,3.38
2019-03-18T02:00:03.540Z,3.36
2019-03-18T02:10:02.420Z,3.39
2019-03-18T02:20:03.085Z,3.30
2019-03-18T02:30:03.402Z,3.28
2019-03-18T02:40:03.606Z,3.31
2019-03-18T02:50:02.751Z,3.28
2019-03-18T03:00:02.732Z,3.24
2019-03-18T03:10:02.718Z,3.29
2019-03-18T03:20:02.632Z,3.20
2019-03-18T03:30:02.828Z,3.04
2019-03-18T03:40:02.336Z,3.06
2019-03-18T03:50:02.923Z,3.19
2019-03-18T04:00:03.679Z,3.09
2019-03-18T04:10:02.999Z,3.04
2019-03-18T04:20:02.691Z,2.96
2019-03-18T04:30:03.018Z,2.92
2019-03-18T04:40:02.706Z,2.92
2019-03-18T04:50:02.606Z,2.88
2019-03-18T05:00:02.715Z,2.91
2019-03-18T05:10:03.153Z,2.90
2019-03-18T05:20:02.869Z,2.84
2019-03-18T05:30:03.497Z,2.76
2019-03-18T05:40:03.357Z,2.72
2019-03-18T05:50:03.073Z,2.68
2019-03-18T06:00:03.375Z,2.82
2019-03-18T06:10:02.341Z,3.09
2019-03-18T06:20:02.991Z,3.23
2019-03-18T06:30:03.282Z,3.30
2019-03-18T06:40:02.835Z,3.39
2019-03-18T06:50:02.484Z,3.49
2019-03-18T07:00:03.435Z,3.23
2019-03-18T07:10:03.362Z,3.33
2019-03-18T07:20:03.085Z,3.50
2019-03-18T07:30:03.571Z,3.65
2019-03-18T07:40:02.924Z,3.90
2019-03-18T07:50:02.945Z,4.14
2019-03-18T08:00:03.430Z,4.39
2019-03-18T08:10:02.620Z,4.46
2019-03-18T08:20:03.352Z,4.58
2019-03-18T08:30:03.278Z,4.54
2019-03-18T08:40:02.720Z,4.39
2019-03-18T08:50:02.697Z,4.48
2019-03-18T09:00:02.784Z,4.60
2019-03-18T09:10:03.049Z,4.57
2019-03-18T09:20:02.603Z,5.13
2019-03-18T09:30:02.837Z,4.83
2019-03-18T09:40:02.588Z,4.84
2019-03-18T09:50:02.178Z,5.29
2019-03-18T10:00:03.493Z,5.26
2019-03-18T10:10:02.652Z,6.83
2019-03-18T10:20:02.723Z,6.85
2019-03-18T10:30:03.212Z,5.83
2019-03-18T10:40:02.579Z,5.49
2019-03-18T10:50:03.381Z,7.57
2019-03-18T11:00:03.619Z,7.91
2019-03-18T11:10:02.175Z,5.35
2019-03-18T11:20:02.094Z,3.92
2019-03-18T11:30:03.388Z,4.93
2019-03-18T11:40:02.994Z,5.51
2019-03-18T11:50:10.664Z,6.13
2019-03-18T12:00:03.071Z,6.18
2019-03-18T12:10:02.682Z,6.34
2019-03-18T12:20:02.541Z,5.91
2019-03-18T12:30:02.896Z,6.03
2019-03-18T12:40:02.622Z,6.25
2019-03-18T12:50:02.627Z,7.08
2019-03-18T13:00:02.817Z,6.18
2019-03-18T13:10:03.050Z,6.42
2019-03-18T13:20:03.257Z,6.48
2019-03-18T13:30:03.613Z,5.94
2019-03-18T13:40:02.595Z,6.49
2019-03-18T13:50:02.334Z,6.81
2019-03-18T14:00:03.615Z,6.84
2019-03-18T14:10:02.670Z,7.03
2019-03-18T14:20:02.658Z,6.69
2019-03-18T14:30:02.877Z,7.31
2019-03-18T14:40:02.387Z,6.86
2019-03-18T14:50:02.365Z,6.64
2019-03-18T15:00:02.838Z,6.86
2019-03-18T15:10:02.999Z,6.86
2019-03-18T15:20:02.840Z,6.74
2019-03-18T15:30:03.219Z,6.65
2019-03-18T15:40:02.408Z,6.37
2019-03-18T15:50:03.120Z,6.47
2019-03-18T16:00:03.471Z,6.47
2019-03-18T16:10:03.420Z,5.71
2019-03-18T16:20:02.083Z,5.52
2019-03-18T16:30:04.077Z,5.39
2019-03-18T16:40:02.338Z,5.82
2019-03-18T16:50:02.531Z,4.98
2019-03-18T17:00:03.508Z,4.39
2019-03-18T17:10:02.528Z,4.19
2019-03-18T17:20:02.299Z,3.92
2019-03-18T17:30:03.729Z,3.57
2019-03-18T17:40:03.138Z,3.33
2019-03-18T17:50:02.609Z,3.16
2019-03-18T18:00:03.564Z,3.12
2019-03-18T18:10:03.340Z,3.08
2019-03-18T18:20:02.948Z,2.99
2019-03-18T18:30:03.447Z,2.88
2019-03-18T18:40:04.700Z,2.68
2019-03-18T18:50:02.363Z,2.66
2019-03-18T19:00:03.347Z,2.56
2019-03-18T19:10:03.457Z,2.27
2019-03-18T19:20:02.597Z,2.16
2019-03-18T19:30:02.702Z,2.22
2019-03-18T19:40:02.710Z,2.09
2019-03-18T19:50:03.379Z,2.19
2019-03-18T20:00:03.680Z,3.00
2019-03-18T20:10:02.751Z,3.19
2019-03-18T20:20:02.325Z,2.95
2019-03-18T20:30:04.464Z,2.97
2019-03-18T20:40:02.860Z,2.90
2019-03-18T20:50:02.416Z,2.98
2019-03-18T21:00:02.743Z,3.03
2019-03-18T21:10:03.162Z,2.97
2019-03-18T21:20:02.665Z,3.12
2019-03-18T21:30:03.697Z,3.20
2019-03-18T21:40:02.248Z,3.10
2019-03-18T21:50:02.633Z,3.06
2019-03-18T22:00:03.622Z,2.91
2019-03-18T22:10:02.450Z,2.96
2019-03-18T22:20:02.651Z,2.95
2019-03-18T22:30:03.454Z,2.96
2019-03-18T22:40:03.230Z,2.92
2019-03-18T22:50:02.627Z,2.89
2019-03-18T23:00:03.246Z,2.79
2019-03-18T23:10:03.029Z,2.63
2019-03-18T23:20:02.718Z,2.38
2019-03-18T23:30:02.759Z,2.10
2019-03-18T23:40:03.011Z,2.03
2019-03-18T23:50:02.589Z,1.95
